createdAt,value
2023-02-19T00:01:09.366Z,22.63
2023-02-19T00:04:15.806Z,23.15
2023-02-19T00:07:18.757Z,22.80
2023-02-19T00:10:21.589Z,22.70
2023-02-19T00:13:24.474Z,21.75
2023-02-19T00:16:29.166Z,23.50
2023-02-19T00:19:33.531Z,22.17
2023-02-19T00:22:36.475Z,22.42
2023-02-19T00:25:39.495Z,20.98
2023-02-19T00:28:42.415Z,20.55
2023-02-19T00:31:46.481Z,22.15
2023-02-19T00:34:50.928Z,21.52
2023-02-19T00:37:53.886Z,21.40
2023-02-19T00:40:56.787Z,21.08
2023-02-19T00:44:01.806Z,22.45
2023-02-19T00:47:04.723Z,22.13
2023-02-19T00:50:09.463Z,21.88
2023-02-19T00:53:12.489Z,22.95
2023-02-19T00:56:15.902Z,21.77
2023-02-19T00:59:18.902Z,22.98
2023-02-19T01:02:22.199Z,23.23
2023-02-19T01:05:27.589Z,21.33
2023-02-19T01:08:32.114Z,22.90
2023-02-19T01:11:37.210Z,20.55
2023-02-19T01:14:40.289Z,19.95
2023-02-19T01:17:43.357Z,20.75
2023-02-19T01:20:48.137Z,20.48
2023-02-19T01:23:51.727Z,20.80
2023-02-19T01:26:54.561Z,21.60
2023-02-19T01:29:57.720Z,19.83
2023-02-19T01:33:00.669Z,20.58
2023-02-19T01:36:07.265Z,20.13
2023-02-19T01:39:12.035Z,20.90
2023-02-19T01:42:16.834Z,20.05
2023-02-19T01:45:26.939Z,20.27
2023-02-19T01:48:33.947Z,20.52
2023-02-19T01:51:42.651Z,19.60
2023-02-19T01:54:48.115Z,20.10
2023-02-19T01:57:55.879Z,19.30
2023-02-19T02:00:59.376Z,19.08
2023-02-19T02:04:02.464Z,19.65
2023-02-19T02:07:28.218Z,19.48
2023-02-19T02:10:30.189Z,19.23
2023-02-19T02:13:34.830Z,19.77
2023-02-19T02:16:49.327Z,18.88
2023-02-19T02:20:07.950Z,18.70
2023-02-19T02:23:21.381Z,18.35
2023-02-19T02:26:36.759Z,19.92
2023-02-19T02:30:07.019Z,18.17
2023-02-19T02:33:20.656Z,18.40
2023-02-19T02:36:28.463Z,18.67
2023-02-19T02:39:32.740Z,18.38
2023-02-19T02:42:40.129Z,18.00
2023-02-19T02:45:49.112Z,17.48
2023-02-19T02:49:01.839Z,17.55
2023-02-19T02:52:25.207Z,18.55
2023-02-19T02:55:31.598Z,17.63
2023-02-19T02:58:35.703Z,17.23
2023-02-19T03:02:03.317Z,17.08
2023-02-19T03:05:27.137Z,17.55
2023-02-19T03:08:32.745Z,16.73
2023-02-19T03:11:57.202Z,16.17
2023-02-19T03:15:23.080Z,16.33
2023-02-19T03:18:51.924Z,16.67
2023-02-19T03:22:00.346Z,16.48
2023-02-19T03:25:26.024Z,16.23
2023-02-19T03:28:47.446Z,16.33
2023-02-19T03:31:53.416Z,15.68
2023-02-19T03:35:03.116Z,16.58
2023-02-19T03:38:12.401Z,15.95
2023-02-19T03:41:24.366Z,15.55
2023-02-19T03:44:38.854Z,16.40
2023-02-19T03:47:49.967Z,15.85
2023-02-19T03:51:10.515Z,15.55
2023-02-19T03:54:22.114Z,15.45
2023-02-19T03:57:32.741Z,16.05
2023-02-19T04:00:40.803Z,15.35
2023-02-19T04:03:50.026Z,16.05
2023-02-19T04:06:57.336Z,14.43
2023-02-19T04:10:04.834Z,15.60
2023-02-19T04:13:12.732Z,14.93
2023-02-19T04:16:20.406Z,15.77
2023-02-19T04:19:27.397Z,14.13
2023-02-19T04:22:32.382Z,14.95
2023-02-19T04:25:37.429Z,14.93
2023-02-19T04:28:40.720Z,14.73
2023-02-19T04:31:43.585Z,14.80
2023-02-19T04:34:46.619Z,14.82
2023-02-19T04:37:50.795Z,13.70
2023-02-19T04:40:53.751Z,14.73
2023-02-19T04:43:56.592Z,13.95
2023-02-19T04:46:59.447Z,13.68
2023-02-19T04:50:02.393Z,14.07
2023-02-19T04:53:06.730Z,14.10
2023-02-19T04:56:10.839Z,13.85
2023-02-19T04:59:13.920Z,13.90
2023-02-19T05:02:16.857Z,13.70
2023-02-19T05:05:19.692Z,14.02
2023-02-19T05:08:23.922Z,13.63
2023-02-19T05:11:26.988Z,13.10
2023-02-19T05:14:29.842Z,12.75
2023-02-19T05:17:34.186Z,13.73
2023-02-19T05:20:37.748Z,13.45
2023-02-19T05:23:42.453Z,13.32
2023-02-19T05:26:45.619Z,12.30
2023-02-19T05:29:48.599Z,12.20
2023-02-19T05:32:51.427Z,12.23
2023-02-19T05:35:56.626Z,13.02
2023-02-19T05:39:00.877Z,12.73
2023-02-19T05:42:03.779Z,12.57
2023-02-19T05:45:07.550Z,13.00
2023-02-19T05:48:12.878Z,12.40
2023-02-19T05:51:18.206Z,12.48
2023-02-19T05:54:22.461Z,12.43
2023-02-19T05:57:25.394Z,12.38
2023-02-19T06:00:28.468Z,11.88
2023-02-19T06:03:31.295Z,11.45
2023-02-19T06:06:34.168Z,11.88
2023-02-19T06:09:38.457Z,12.00
2023-02-19T06:12:41.235Z,11.93
2023-02-19T06:15:44.075Z,11.00
2023-02-19T06:18:47.285Z,11.20
2023-02-19T06:21:51.364Z,12.23
2023-02-19T06:24:55.834Z,12.20
2023-02-19T06:27:58.731Z,11.38
2023-02-19T06:31:01.631Z,10.95
2023-02-19T06:34:05.833Z,11.18
2023-02-19T06:37:08.770Z,10.70
2023-02-19T06:40:13.236Z,11.13
2023-02-19T06:43:16.110Z,11.05
2023-02-19T06:46:19.184Z,10.63
2023-02-19T06:49:22.733Z,11.13
2023-02-19T06:52:25.815Z,10.40
2023-02-19T06:55:30.052Z,10.38
2023-02-19T06:58:33.946Z,10.40
2023-02-19T07:01:38.334Z,10.63
2023-02-19T07:04:41.655Z,9.48
2023-02-19T07:07:46.632Z,8.63
2023-02-19T07:10:56.964Z,8.18
2023-02-19T07:14:01.503Z,8.40
2023-02-19T07:17:04.467Z,8.20
2023-02-19T07:20:07.795Z,7.32
2023-02-19T07:23:10.705Z,7.80
2023-02-19T07:26:16.933Z,7.28
2023-02-19T07:29:20.011Z,7.65
2023-02-19T07:32:22.846Z,7.90
2023-02-19T07:35:25.784Z,7.60
2023-02-19T07:38:29.212Z,7.53
2023-02-19T07:41:33.980Z,7.60
2023-02-19T07:44:36.902Z,7.05
2023-02-19T07:47:40.311Z,7.63
2023-02-19T07:50:43.320Z,7.20
2023-02-19T07:53:46.637Z,7.25
2023-02-19T07:56:50.952Z,7.07
2023-02-19T07:59:53.824Z,7.20
2023-02-19T08:03:03.134Z,7.18
2023-02-19T08:06:07.148Z,7.30
2023-02-19T08:09:10.654Z,7.05
2023-02-19T08:12:32.556Z,6.38
2023-02-19T08:15:35.444Z,7.43
2023-02-19T08:18:38.420Z,6.65
2023-02-19T08:21:41.252Z,6.50
2023-02-19T08:24:45.062Z,6.75
2023-02-19T08:27:49.254Z,6.82
2023-02-19T08:30:52.377Z,7.10
2023-02-19T08:33:55.878Z,6.80
2023-02-19T08:36:58.741Z,6.72
2023-02-19T08:40:01.681Z,6.57
2023-02-19T08:43:08.100Z,5.90
2023-02-19T08:46:12.229Z,6.53
2023-02-19T08:49:16.419Z,6.65
2023-02-19T08:52:19.447Z,6.53
2023-02-19T08:55:22.536Z,6.43
2023-02-19T08:58:27.253Z,6.20
2023-02-19T09:01:30.235Z,6.53
2023-02-19T09:04:33.264Z,5.88
2023-02-19T09:07:36.213Z,5.93
2023-02-19T09:10:39.097Z,6.70
2023-02-19T09:13:44.209Z,6.32
2023-02-19T09:16:46.990Z,6.00
2023-02-19T09:19:50.902Z,6.15
2023-02-19T09:22:58.201Z,6.03
2023-02-19T09:26:03.279Z,6.30
2023-02-19T09:29:07.539Z,6.55
2023-02-19T09:32:10.828Z,5.85
2023-02-19T09:35:13.736Z,6.60
2023-02-19T09:38:16.690Z,6.30
2023-02-19T09:41:25.975Z,6.70
2023-02-19T09:44:32.200Z,6.63
2023-02-19T09:47:36.026Z,3.97
2023-02-19T09:50:45.879Z,3.30
2023-02-19T09:53:51.890Z,3.30
2023-02-19T09:56:57.694Z,2.00
2023-02-19T10:00:08.577Z,3.38
2023-02-19T10:03:23.368Z,3.50
2023-02-19T10:06:29.941Z,4.40
2023-02-19T10:09:32.904Z,6.38
2023-02-19T10:12:35.776Z,8.98
2023-02-19T10:15:45.941Z,11.98
2023-02-19T10:18:49.583Z,17.40
2023-02-19T10:21:52.543Z,20.30
2023-02-19T10:24:57.321Z,21.20
2023-02-19T10:28:00.624Z,25.52
2023-02-19T10:31:12.693Z,27.17
2023-02-19T10:34:20.632Z,31.73
2023-02-19T10:37:23.654Z,32.50
2023-02-19T10:40:29.350Z,33.63
2023-02-19T10:43:36.545Z,41.53
2023-02-19T10:46:45.182Z,43.00
2023-02-19T10:49:49.796Z,44.10
2023-02-19T10:52:54.630Z,47.38
2023-02-19T10:56:08.797Z,51.50
2023-02-19T10:59:25.758Z,55.92
2023-02-19T11:02:31.523Z,57.13
2023-02-19T11:05:35.012Z,60.45
2023-02-19T11:08:48.506Z,60.58
2023-02-19T11:11:53.316Z,66.18
2023-02-19T11:14:56.694Z,68.20
2023-02-19T11:18:23.474Z,70.95
2023-02-19T11:21:32.851Z,71.43
2023-02-19T11:24:38.179Z,75.30
2023-02-19T11:27:55.355Z,78.38
2023-02-19T11:31:15.441Z,80.47
2023-02-19T11:37:34.115Z,83.72
2023-02-19T11:40:41.977Z,84.78
2023-02-19T11:44:01.323Z,92.07
2023-02-19T11:47:33.005Z,95.13
2023-02-19T11:50:49.601Z,101.45
2023-02-19T11:54:04.413Z,104.63
2023-02-19T11:57:16.334Z,106.75
2023-02-19T12:00:25.997Z,113.35
2023-02-19T12:03:49.968Z,115.40
2023-02-19T12:07:05.349Z,117.97
2023-02-19T12:10:18.797Z,122.70
2023-02-19T12:13:34.160Z,123.22
2023-02-19T12:16:43.793Z,128.05
2023-02-19T12:20:04.169Z,130.57
2023-02-19T12:23:32.072Z,126.88
2023-02-19T12:26:42.580Z,129.05
2023-02-19T12:30:00.459Z,134.30
2023-02-19T12:33:18.567Z,135.15
2023-02-19T12:36:28.907Z,139.90
2023-02-19T12:39:43.088Z,145.05
2023-02-19T12:42:58.561Z,146.40
2023-02-19T12:46:05.393Z,148.80
2023-02-19T12:49:13.490Z,149.63
2023-02-19T12:52:21.103Z,153.77
2023-02-19T12:55:29.157Z,159.75
2023-02-19T12:58:38.919Z,159.88
2023-02-19T13:01:49.616Z,153.13
2023-02-19T13:05:01.220Z,162.10
2023-02-19T13:08:09.039Z,161.80
2023-02-19T13:11:19.190Z,169.57
2023-02-19T13:14:28.397Z,169.23
2023-02-19T13:17:39.602Z,171.45
2023-02-19T13:20:44.528Z,175.73
2023-02-19T13:23:58.610Z,179.38
2023-02-19T13:27:13.328Z,179.05
2023-02-19T13:30:34.989Z,180.63
2023-02-19T13:33:48.386Z,183.05
2023-02-19T13:36:51.364Z,185.57
2023-02-19T13:39:55.891Z,186.55
2023-02-19T13:43:02.386Z,189.95
2023-02-19T13:46:08.821Z,194.70
2023-02-19T13:49:42.267Z,197.07
2023-02-19T13:52:45.195Z,192.00
2023-02-19T13:55:53.143Z,192.60
2023-02-19T13:59:01.464Z,201.98
2023-02-19T14:02:29.108Z,201.77
2023-02-19T14:06:01.861Z,204.88
2023-02-19T14:09:04.788Z,198.70
2023-02-19T14:12:20.636Z,205.50
2023-02-19T14:15:44.890Z,201.88
2023-02-19T14:18:47.942Z,209.82
2023-02-19T14:21:50.851Z,212.73
2023-02-19T14:24:55.148Z,201.73
2023-02-19T14:28:03.227Z,183.70
2023-02-19T14:31:18.572Z,183.70
2023-02-19T14:34:26.298Z,194.55
2023-02-19T14:37:29.187Z,202.30
2023-02-19T14:40:37.014Z,200.20
2023-02-19T14:43:40.760Z,173.20
2023-02-19T14:46:50.971Z,167.93
2023-02-19T14:49:59.096Z,172.65
2023-02-19T14:53:05.514Z,173.52
2023-02-19T14:56:20.624Z,179.65
2023-02-19T14:59:26.641Z,185.05
2023-02-19T15:02:33.094Z,183.15
2023-02-19T15:05:37.706Z,189.10
2023-02-19T15:08:45.548Z,193.25
2023-02-19T15:11:49.402Z,192.82
2023-02-19T15:14:56.360Z,193.15
2023-02-19T15:18:02.557Z,194.88
2023-02-19T15:21:23.667Z,200.10
2023-02-19T15:24:28.221Z,202.95
2023-02-19T15:27:31.270Z,205.60
2023-02-19T15:30:34.323Z,205.75
2023-02-19T15:33:38.527Z,217.55
2023-02-19T15:36:42.001Z,219.88
2023-02-19T15:39:48.229Z,217.02
2023-02-19T15:42:51.195Z,220.48
2023-02-19T15:45:57.599Z,219.23
2023-02-19T15:49:06.227Z,221.35
2023-02-19T15:52:13.314Z,211.27
2023-02-19T15:55:28.154Z,219.32
2023-02-19T15:58:36.265Z,220.35
2023-02-19T16:01:40.857Z,219.30
2023-02-19T16:04:46.499Z,216.90
2023-02-19T16:08:07.444Z,218.88
2023-02-19T16:11:29.778Z,222.50
2023-02-19T16:14:34.343Z,216.15
2023-02-19T16:17:37.350Z,218.23
2023-02-19T16:20:41.644Z,218.35
2023-02-19T16:23:46.474Z,223.68
2023-02-19T16:26:49.419Z,219.90
2023-02-19T16:29:53.028Z,220.18
2023-02-19T16:33:36.191Z,228.65
2023-02-19T16:36:42.486Z,228.10
2023-02-19T16:39:45.353Z,227.52
2023-02-19T16:43:24.995Z,226.30
2023-02-19T16:46:28.040Z,229.98
2023-02-19T16:49:30.873Z,235.02
2023-02-19T16:52:38.967Z,236.30
2023-02-19T16:55:41.849Z,234.38
2023-02-19T16:58:44.718Z,240.77
2023-02-19T17:01:47.711Z,261.10
2023-02-19T17:04:51.897Z,260.80
2023-02-19T17:07:56.123Z,262.05
2023-02-19T17:10:59.370Z,261.48
2023-02-19T17:14:02.229Z,265.17
2023-02-19T17:17:06.256Z,268.75
2023-02-19T17:20:21.438Z,265.45
2023-02-19T17:23:25.656Z,264.75
2023-02-19T17:26:30.964Z,248.63
2023-02-19T17:29:34.080Z,251.85
2023-02-19T17:32:37.028Z,248.48
2023-02-19T17:35:40.125Z,256.85
2023-02-19T17:38:44.340Z,257.08
2023-02-19T17:41:47.459Z,254.70
2023-02-19T17:44:51.893Z,259.75
2023-02-19T17:47:54.712Z,255.57
2023-02-19T17:50:57.850Z,257.35
2023-02-19T17:54:02.531Z,257.35
2023-02-19T17:57:05.838Z,258.73
2023-02-19T18:00:09.851Z,269.13
2023-02-19T18:03:15.827Z,274.02
2023-02-19T18:06:18.889Z,271.60
2023-02-19T18:09:23.117Z,250.00
2023-02-19T18:12:26.295Z,203.15
2023-02-19T18:15:29.613Z,201.20
2023-02-19T18:18:32.440Z,208.52
2023-02-19T18:21:35.283Z,217.52
2023-02-19T18:24:40.078Z,221.73
2023-02-19T18:27:42.926Z,226.52
2023-02-19T18:30:45.963Z,223.25
2023-02-19T18:33:48.929Z,220.55
2023-02-19T18:36:51.848Z,223.23
2023-02-19T18:39:56.064Z,224.95
2023-02-19T18:42:58.946Z,233.10
2023-02-19T18:46:02.066Z,227.75
2023-02-19T18:49:05.068Z,229.50
2023-02-19T18:52:08.378Z,225.63
2023-02-19T18:55:13.060Z,227.18
2023-02-19T18:58:15.941Z,227.00
2023-02-19T19:01:18.838Z,229.73
2023-02-19T19:04:21.829Z,232.95
2023-02-19T19:07:24.706Z,238.27
2023-02-19T19:10:29.841Z,241.98
2023-02-19T19:13:32.722Z,242.43
2023-02-19T19:16:35.887Z,245.57
2023-02-19T19:19:38.830Z,244.52
2023-02-19T19:22:41.655Z,247.40
2023-02-19T19:25:45.890Z,250.82
2023-02-19T19:28:48.724Z,251.30
2023-02-19T19:31:51.685Z,257.45
2023-02-19T19:34:55.131Z,251.15
2023-02-19T19:37:58.014Z,255.88
2023-02-19T19:41:02.263Z,254.82
2023-02-19T19:44:05.845Z,262.25
2023-02-19T19:47:08.652Z,262.55
2023-02-19T19:50:13.171Z,261.88
2023-02-19T19:53:16.239Z,266.80
2023-02-19T19:56:20.468Z,266.67
2023-02-19T19:59:24.149Z,268.10
2023-02-19T20:02:27.141Z,269.70
2023-02-19T20:05:30.062Z,274.48
2023-02-19T20:08:33.000Z,268.73
2023-02-19T20:11:43.794Z,260.83
2023-02-19T20:14:47.695Z,257.58
2023-02-19T20:17:51.291Z,269.55
2023-02-19T20:20:54.187Z,269.02
2023-02-19T20:23:57.058Z,273.55
2023-02-19T20:27:02.685Z,262.73
2023-02-19T20:30:08.756Z,271.05
2023-02-19T20:33:12.859Z,270.55
2023-02-19T20:36:15.963Z,269.65
2023-02-19T20:39:20.204Z,269.85
2023-02-19T20:42:24.532Z,269.60
2023-02-19T20:45:27.985Z,262.83
2023-02-19T20:48:30.964Z,252.05
2023-02-19T20:51:33.948Z,258.38
2023-02-19T20:54:38.326Z,260.58
2023-02-19T20:57:43.572Z,261.90
2023-02-19T21:00:46.738Z,265.45
2023-02-19T21:03:49.557Z,273.35
2023-02-19T21:06:52.644Z,269.35
2023-02-19T21:09:55.757Z,271.30
2023-02-19T21:13:00.147Z,270.90
2023-02-19T21:16:03.288Z,274.27
2023-02-19T21:19:06.252Z,274.33
2023-02-19T21:22:09.213Z,276.50
2023-02-19T21:25:12.679Z,277.38
2023-02-19T21:28:17.019Z,280.20
2023-02-19T21:31:24.462Z,279.55
2023-02-19T21:34:30.078Z,282.88
2023-02-19T21:37:33.070Z,281.55
2023-02-19T21:40:37.520Z,276.27
2023-02-19T21:43:41.764Z,278.65
2023-02-19T21:46:44.657Z,283.08
2023-02-19T21:49:47.510Z,289.25
2023-02-19T21:52:50.481Z,284.33
2023-02-19T21:56:10.403Z,281.90
2023-02-19T21:59:15.688Z,287.77
2023-02-19T22:02:19.919Z,288.88
2023-02-19T22:05:22.815Z,289.13
2023-02-19T22:08:25.726Z,284.27
2023-02-19T22:11:28.633Z,292.85
2023-02-19T22:14:32.866Z,289.02
2023-02-19T22:17:35.681Z,292.70
2023-02-19T22:20:39.516Z,284.13
2023-02-19T22:23:45.406Z,295.50
2023-02-19T22:26:50.600Z,284.20
2023-02-19T22:29:54.976Z,294.25
2023-02-19T22:32:57.879Z,291.27
2023-02-19T22:36:00.784Z,294.45
2023-02-19T22:39:04.795Z,297.20
2023-02-19T22:42:07.746Z,297.10
2023-02-19T22:45:13.134Z,298.98
2023-02-19T22:48:25.177Z,299.08
2023-02-19T22:51:35.547Z,299.35
2023-02-19T22:54:39.280Z,301.05
2023-02-19T22:57:42.162Z,297.63
2023-02-19T23:00:46.634Z,295.90
2023-02-19T23:03:51.485Z,301.60
2023-02-19T23:06:54.397Z,297.35
2023-02-19T23:09:57.248Z,306.05
2023-02-19T23:13:00.437Z,301.15
2023-02-19T23:16:06.008Z,303.23
2023-02-19T23:19:11.466Z,302.95
2023-02-19T23:22:14.343Z,305.27
2023-02-19T23:25:17.501Z,304.98
2023-02-19T23:28:20.440Z,306.05
2023-02-19T23:31:26.068Z,307.58
2023-02-19T23:34:29.076Z,307.58
2023-02-19T23:37:32.124Z,306.35
2023-02-19T23:40:35.114Z,315.58
2023-02-19T23:43:38.019Z,312.08
2023-02-19T23:46:43.179Z,311.85
2023-02-19T23:49:46.247Z,301.63
2023-02-19T23:52:49.079Z,222.40
2023-02-19T23:55:52.576Z,168.25
2023-02-19T23:58:55.734Z,143.63
